Time;durP1;ratioP1;P1;durP2;ratioP2;P2;SDS_P1;SDS_P2;PMS_P1;PMS_P2;Temp;Humidity;BMP_temperature;BMP_pressure;BME280_temperature;BME280_humidity;BME280_pressure;Samples;Min_cycle;Max_cycle;Signal;HPM_P1;HPM_P2
2023/04/05 00:00:44;;;;;;;6.70;3.00;;;11.10;52.90;;;;;;5087544;28;20056;-79
2023/04/05 00:03:10;;;;;;;5.25;3.15;;;11.10;52.70;;;;;;5084791;28;20032;-79
2023/04/05 00:05:36;;;;;;;5.03;2.78;;;11.00;52.60;;;;;;5080989;28;20032;-79
2023/04/05 00:08:07;;;;;;;6.00;2.83;;;11.00;52.20;;;;;;5082863;28;20036;-79
2023/04/05 00:10:32;;;;;;;4.55;3.00;;;11.00;52.20;;;;;;5083968;28;20025;-79
2023/04/05 00:12:59;;;;;;;5.82;3.00;;;11.00;52.30;;;;;;5068393;28;20411;-79
2023/04/05 00:15:28;;;;;;;5.47;3.10;;;11.00;52.40;;;;;;5083322;28;20100;-79
2023/04/05 00:17:54;;;;;;;10.02;3.00;;;11.00;52.60;;;;;;5078988;28;20105;-78
2023/04/05 00:20:20;;;;;;;5.57;3.15;;;11.00;52.60;;;;;;5078301;28;20097;-79
2023/04/05 00:22:49;;;;;;;7.03;2.85;;;11.00;52.80;;;;;;5080574;28;20032;-79
2023/04/05 00:25:15;;;;;;;7.35;3.17;;;11.00;52.90;;;;;;5048287;28;20060;-79
2023/04/05 00:27:42;;;;;;;9.52;3.47;;;11.00;52.80;;;;;;5081409;28;20040;-79
2023/04/05 00:30:08;;;;;;;6.28;2.60;;;11.00;52.80;;;;;;5078762;28;20063;-79
2023/04/05 00:32:35;;;;;;;5.32;2.92;;;11.00;52.70;;;;;;5043841;28;20025;-78
2023/04/05 00:35:00;;;;;;;7.63;2.97;;;11.00;52.80;;;;;;5081415;28;20029;-79
2023/04/05 00:37:26;;;;;;;6.03;3.40;;;11.00;52.80;;;;;;5083357;28;20124;-79
2023/04/05 00:39:52;;;;;;;4.60;3.03;;;11.00;52.70;;;;;;5083085;28;20056;-79
2023/04/05 00:42:18;;;;;;;6.25;2.83;;;11.00;52.80;;;;;;5086975;28;20036;-78
2023/04/05 00:44:44;;;;;;;3.90;2.50;;;11.00;53.00;;;;;;5083044;28;20376;-78
2023/04/05 00:47:10;;;;;;;6.72;2.70;;;10.90;53.70;;;;;;5069084;28;20365;-79
2023/04/05 00:49:37;;;;;;;5.43;2.97;;;10.90;53.00;;;;;;5083288;28;20118;-79
2023/04/05 00:52:03;;;;;;;4.72;3.10;;;10.90;52.90;;;;;;5086947;28;20036;-79
2023/04/05 00:54:29;;;;;;;5.00;2.58;;;10.70;52.80;;;;;;5085633;28;20032;-79
2023/04/05 00:56:56;;;;;;;5.72;2.80;;;10.70;53.00;;;;;;5081328;28;20072;-79
2023/04/05 00:59:22;;;;;;;4.90;2.58;;;10.70;53.20;;;;;;5065524;28;20032;-79
2023/04/05 01:02:17;;;;;;;7.25;3.13;;;10.70;53.30;;;;;;5079468;28;20032;-79
2023/04/05 01:04:48;;;;;;;8.27;3.03;;;10.70;53.70;;;;;;5076373;28;20489;-79
2023/04/05 01:07:26;;;;;;;9.10;3.17;;;10.70;53.70;;;;;;5081158;28;20123;-79
2023/04/05 01:09:59;;;;;;;3.92;2.70;;;10.70;53.60;;;;;;5084354;28;20029;-79
2023/04/05 01:12:33;;;;;;;6.32;2.78;;;10.70;53.50;;;;;;5079701;28;20054;-79
2023/04/05 01:15:00;;;;;;;6.85;3.15;;;10.70;53.70;;;;;;5083081;28;20024;-79
2023/04/05 01:17:27;;;;;;;5.57;2.67;;;10.70;53.90;;;;;;5085016;28;20039;-79
2023/04/05 01:20:02;;;;;;;6.10;2.78;;;10.70;54.00;;;;;;5081503;28;20087;-79
2023/04/05 01:22:47;;;;;;;8.20;2.70;;;10.70;54.20;;;;;;5078457;28;20032;-78
2023/04/05 01:25:35;;;;;;;5.22;3.17;;;10.70;54.10;;;;;;5073908;28;20455;-79
2023/04/05 01:28:26;;;;;;;7.65;3.53;;;10.60;54.00;;;;;;5073287;28;20029;-79
2023/04/05 01:31:02;;;;;;;4.43;2.67;;;10.60;54.10;;;;;;5077421;28;20063;-79
2023/04/05 01:33:43;;;;;;;6.60;3.20;;;10.60;54.20;;;;;;5077816;28;20027;-78
2023/04/05 01:36:38;;;;;;;5.60;2.70;;;10.60;54.10;;;;;;5074799;28;20078;-79
2023/04/05 01:39:07;;;;;;;5.43;2.83;;;10.60;54.30;;;;;;5076016;28;20044;-79
2023/04/05 01:41:33;;;;;;;4.82;2.67;;;10.60;54.40;;;;;;5061794;28;20029;-79
2023/04/05 01:43:59;;;;;;;5.72;3.42;;;10.60;55.00;;;;;;5096758;28;20050;-79
2023/04/05 01:46:25;;;;;;;8.32;3.72;;;10.60;54.60;;;;;;5079264;28;20032;-79
2023/04/05 01:48:51;;;;;;;10.23;3.72;;;10.40;54.40;;;;;;5061975;28;20059;-79
2023/04/05 01:51:16;;;;;;;6.85;3.78;;;10.20;54.80;;;;;;5063094;28;20033;-79
2023/04/05 01:53:42;;;;;;;6.03;3.13;;;9.80;55.10;;;;;;5081611;28;20384;-79
2023/04/05 01:56:08;;;;;;;4.00;3.03;;;9.60;56.30;;;;;;5082104;28;20055;-79
2023/04/05 01:58:33;;;;;;;4.45;3.33;;;9.60;55.90;;;;;;5045075;28;20499;-81
2023/04/05 02:00:59;;;;;;;5.05;2.90;;;9.60;55.90;;;;;;5075643;28;20028;-81
2023/04/05 02:03:25;;;;;;;7.35;3.10;;;9.80;55.90;;;;;;5075248;28;20032;-81
2023/04/05 02:05:50;;;;;;;5.13;3.13;;;9.90;55.90;;;;;;5093544;28;20063;-81
2023/04/05 02:08:16;;;;;;;6.65;3.63;;;9.90;55.80;;;;;;5058552;28;20081;-81
2023/04/05 02:10:43;;;;;;;4.82;3.05;;;9.90;55.80;;;;;;5093697;28;20073;-81
2023/04/05 02:13:09;;;;;;;5.15;3.70;;;10.00;55.80;;;;;;5075401;28;20094;-81
2023/04/05 02:15:34;;;;;;;7.18;3.08;;;10.00;55.80;;;;;;5075321;28;20032;-81
2023/04/05 02:18:01;;;;;;;7.88;3.25;;;10.00;55.90;;;;;;5078994;28;20035;-81
2023/04/05 02:20:27;;;;;;;5.43;3.47;;;10.00;56.00;;;;;;5079367;28;20028;-81
2023/04/05 02:22:53;;;;;;;6.72;3.83;;;10.00;55.90;;;;;;5079449;28;20028;-81
2023/04/05 02:25:19;;;;;;;8.00;3.80;;;9.90;55.70;;;;;;5062631;28;20020;-80
2023/04/05 02:27:45;;;;;;;6.10;3.38;;;9.80;56.00;;;;;;5097365;28;20059;-81
2023/04/05 02:30:12;;;;;;;6.70;3.42;;;9.80;56.20;;;;;;5079252;28;20046;-81
2023/04/05 02:32:41;;;;;;;6.07;3.50;;;9.70;56.50;;;;;;5063211;28;20024;-80
2023/04/05 02:35:07;;;;;;;8.98;3.75;;;9.70;56.40;;;;;;5063451;28;20024;-81
2023/04/05 02:37:33;;;;;;;5.30;3.25;;;9.70;56.50;;;;;;5097437;28;20032;-80
2023/04/05 02:39:59;;;;;;;5.85;3.60;;;9.60;56.60;;;;;;5096699;28;20142;-81
2023/04/05 02:42:25;;;;;;;7.07;3.75;;;9.60;56.70;;;;;;5062217;28;20036;-80
2023/04/05 02:44:52;;;;;;;7.95;3.90;;;9.50;56.90;;;;;;5078925;28;20028;-80
2023/04/05 02:47:21;;;;;;;5.35;3.58;;;9.50;57.00;;;;;;5096816;28;20391;-80
2023/04/05 02:49:49;;;;;;;7.88;3.97;;;9.50;57.10;;;;;;5096638;28;20028;-81
2023/04/05 02:52:15;;;;;;;7.80;3.53;;;9.50;57.00;;;;;;5079158;28;20069;-81
2023/04/05 02:54:41;;;;;;;4.85;3.60;;;9.40;57.10;;;;;;5097383;28;20115;-80
2023/04/05 02:57:10;;;;;;;9.82;3.40;;;9.40;57.20;;;;;;5078800;28;20540;-80
2023/04/05 02:59:37;;;;;;;8.55;3.80;;;9.50;57.10;;;;;;5097315;28;20028;-80
2023/04/05 03:02:03;;;;;;;6.50;3.35;;;9.50;57.20;;;;;;5096960;28;20024;-80
2023/04/05 03:04:29;;;;;;;7.70;3.78;;;9.50;57.10;;;;;;5078542;28;20048;-80
2023/04/05 03:06:56;;;;;;;8.55;3.67;;;9.40;57.30;;;;;;5062390;28;20502;-80
2023/04/05 03:09:22;;;;;;;6.88;4.10;;;9.40;57.30;;;;;;5078698;28;20032;-80
2023/04/05 03:11:48;;;;;;;9.13;4.35;;;9.20;58.00;;;;;;5096428;28;20028;-80
2023/04/05 03:14:13;;;;;;;8.82;4.10;;;8.90;58.40;;;;;;5096539;28;20028;-81
2023/04/05 03:16:39;;;;;;;6.65;4.13;;;8.60;59.00;;;;;;5078639;28;20487;-81
2023/04/05 03:19:05;;;;;;;6.95;4.10;;;8.50;59.60;;;;;;5078878;28;20081;-82
2023/04/05 03:21:32;;;;;;;5.90;3.60;;;8.30;59.90;;;;;;5096769;28;20024;-80
2023/04/05 03:23:59;;;;;;;7.50;3.90;;;8.20;60.20;;;;;;5061810;28;20123;-81
2023/04/05 03:26:25;;;;;;;7.40;3.50;;;8.30;60.30;;;;;;5097771;28;20024;-81
2023/04/05 03:28:50;;;;;;;5.13;3.20;;;8.40;60.20;;;;;;5078217;28;20032;-81
2023/04/05 03:31:16;;;;;;;6.32;3.75;;;8.50;60.00;;;;;;5096983;28;20029;-81
2023/04/05 03:33:42;;;;;;;8.35;4.05;;;8.60;60.10;;;;;;5062058;28;20082;-81
2023/04/05 03:36:08;;;;;;;7.63;3.72;;;8.60;60.00;;;;;;5061777;28;20105;-81
2023/04/05 03:38:34;;;;;;;8.70;4.32;;;8.50;60.00;;;;;;5078169;28;20484;-81
2023/04/05 03:41:03;;;;;;;8.25;3.70;;;8.40;60.40;;;;;;5062540;28;20453;-81
2023/04/05 03:43:29;;;;;;;8.27;4.15;;;8.40;60.50;;;;;;5078206;28;20025;-80
2023/04/05 03:45:54;;;;;;;5.05;3.60;;;8.50;60.20;;;;;;5061544;28;20077;-80
2023/04/05 03:48:20;;;;;;;5.57;3.35;;;8.60;60.20;;;;;;5078081;28;20089;-81
2023/04/05 03:50:46;;;;;;;6.05;3.67;;;8.70;60.10;;;;;;5062064;28;20044;-81
2023/04/05 03:53:12;;;;;;;6.18;4.05;;;8.80;60.00;;;;;;5078365;28;20055;-81
2023/04/05 03:55:39;;;;;;;6.05;3.70;;;8.90;59.80;;;;;;5078409;28;20482;-81
2023/04/05 03:58:04;;;;;;;8.45;4.00;;;8.90;59.80;;;;;;5077911;28;20222;-81
2023/04/05 04:00:30;;;;;;;8.80;3.60;;;8.90;60.00;;;;;;5096256;28;20028;-81
2023/04/05 04:02:56;;;;;;;7.82;3.67;;;8.90;59.80;;;;;;5079132;28;20048;-81
2023/04/05 04:05:21;;;;;;;9.07;4.40;;;9.00;59.80;;;;;;5078239;28;20032;-81
2023/04/05 04:07:47;;;;;;;5.88;3.88;;;9.00;59.80;;;;;;5095809;28;20038;-81
2023/04/05 04:10:18;;;;;;;9.38;4.47;;;9.00;59.70;;;;;;5078019;28;20111;-81
2023/04/05 04:12:44;;;;;;;9.52;4.40;;;9.00;59.60;;;;;;5078248;28;20051;-81
2023/04/05 04:15:10;;;;;;;5.88;4.20;;;9.00;59.70;;;;;;5078257;28;20426;-81
2023/04/05 04:17:36;;;;;;;7.30;4.50;;;8.90;59.60;;;;;;5077551;28;20042;-81
2023/04/05 04:20:10;;;;;;;7.28;3.70;;;8.90;59.80;;;;;;5077225;28;20020;-81
2023/04/05 04:22:37;;;;;;;10.77;4.63;;;8.90;59.90;;;;;;5095490;28;20020;-81
2023/04/05 04:25:13;;;;;;;8.13;3.95;;;8.80;59.80;;;;;;5095543;28;20028;-80
2023/04/05 04:27:42;;;;;;;7.03;3.28;;;8.80;59.80;;;;;;5077600;28;20028;-81
2023/04/05 04:30:09;;;;;;;8.65;3.65;;;8.90;59.90;;;;;;5095111;28;20028;-80
2023/04/05 04:32:56;;;;;;;8.00;4.03;;;9.00;60.00;;;;;;5095087;28;20036;-81
2023/04/05 04:35:27;;;;;;;8.20;3.88;;;9.00;60.00;;;;;;5080286;28;20024;-81
2023/04/05 04:38:02;;;;;;;7.45;4.00;;;9.00;60.00;;;;;;5061065;28;20401;-81
2023/04/05 04:40:38;;;;;;;7.57;4.35;;;9.00;60.00;;;;;;5094568;28;20119;-81
2023/04/05 04:43:13;;;;;;;7.63;4.10;;;9.00;60.00;;;;;;5077994;28;20360;-81
2023/04/05 04:45:39;;;;;;;13.10;4.45;;;9.00;60.00;;;;;;5095034;28;20491;-81
2023/04/05 04:48:06;;;;;;;7.53;4.40;;;8.90;60.10;;;;;;5060896;28;20043;-82
2023/04/05 04:50:32;;;;;;;9.80;4.95;;;8.90;60.30;;;;;;5095320;28;20353;-81
2023/04/05 04:52:59;;;;;;;12.55;4.40;;;8.80;60.30;;;;;;5077497;28;20031;-81
2023/04/05 04:55:25;;;;;;;8.40;4.60;;;8.60;60.40;;;;;;5095499;28;20153;-81
2023/04/05 04:57:54;;;;;;;8.73;4.60;;;8.50;60.70;;;;;;5076513;28;20396;-81
2023/04/05 05:00:22;;;;;;;10.13;4.40;;;8.40;61.00;;;;;;5094261;28;20383;-82
2023/04/05 05:02:49;;;;;;;8.45;4.45;;;8.30;61.10;;;;;;5094644;28;20028;-81
2023/04/05 05:05:15;;;;;;;8.75;4.13;;;8.30;61.40;;;;;;5059656;28;20040;-82
2023/04/05 05:07:41;;;;;;;7.65;4.20;;;8.30;61.40;;;;;;5043498;28;20040;-82
2023/04/05 05:10:08;;;;;;;7.97;4.75;;;8.30;61.30;;;;;;5059839;28;20046;-81
2023/04/05 05:12:33;;;;;;;8.73;4.40;;;8.30;61.30;;;;;;5077020;28;20077;-81
2023/04/05 05:14:59;;;;;;;7.18;4.30;;;8.30;61.30;;;;;;5076913;28;20032;-81
2023/04/05 05:17:25;;;;;;;9.20;4.43;;;8.40;61.40;;;;;;5060096;28;20127;-81
2023/04/05 05:19:50;;;;;;;7.43;4.30;;;8.40;61.50;;;;;;5077010;28;20024;-81
2023/04/05 05:22:17;;;;;;;8.52;4.75;;;8.40;61.40;;;;;;5076161;28;20103;-79
2023/04/05 05:24:44;;;;;;;8.88;5.60;;;8.40;61.50;;;;;;5077212;28;20021;-80
2023/04/05 05:27:09;;;;;;;10.10;4.75;;;8.30;61.60;;;;;;5094363;28;20031;-81
2023/04/05 05:29:35;;;;;;;10.43;5.00;;;8.30;61.70;;;;;;5077519;28;20454;-81
2023/04/05 05:32:01;;;;;;;8.90;4.63;;;8.30;61.70;;;;;;5061090;28;20073;-81
2023/04/05 05:34:27;;;;;;;10.38;5.53;;;8.40;61.60;;;;;;5076234;28;20020;-81
2023/04/05 05:36:54;;;;;;;9.82;5.18;;;8.40;61.60;;;;;;5060075;28;20101;-82
2023/04/05 05:39:20;;;;;;;7.45;4.15;;;8.40;61.60;;;;;;5077103;28;20073;-81
2023/04/05 05:41:46;;;;;;;9.82;4.93;;;8.40;61.60;;;;;;5076523;28;20111;-82
2023/04/05 05:44:12;;;;;;;6.47;4.03;;;8.50;61.50;;;;;;5075813;28;20031;-81
2023/04/05 05:46:38;;;;;;;9.95;4.20;;;8.50;61.50;;;;;;5076342;28;20490;-81
2023/04/05 05:49:04;;;;;;;11.98;4.80;;;8.50;61.30;;;;;;5093363;28;20036;-81
2023/04/05 05:51:31;;;;;;;9.82;4.80;;;8.50;61.20;;;;;;5075384;28;20032;-77
2023/04/05 05:53:57;;;;;;;9.60;4.75;;;8.40;61.50;;;;;;5075412;28;20063;-78
2023/04/05 05:56:23;;;;;;;9.93;4.95;;;8.30;61.60;;;;;;5075312;28;20058;-77
2023/04/05 05:58:48;;;;;;;9.00;4.95;;;8.30;61.80;;;;;;5041864;28;20040;-77
2023/04/05 06:01:14;;;;;;;7.78;4.80;;;8.30;61.90;;;;;;5093487;28;20032;-79
2023/04/05 06:03:40;;;;;;;9.00;4.68;;;8.30;61.80;;;;;;5059208;28;20357;-79
2023/04/05 06:06:07;;;;;;;6.60;4.47;;;8.40;61.90;;;;;;5059175;28;20028;-79
2023/04/05 06:08:33;;;;;;;10.00;4.80;;;8.40;61.60;;;;;;5058754;28;20040;-77
2023/04/05 06:10:59;;;;;;;8.73;5.32;;;8.30;61.70;;;;;;5075411;28;20043;-78
2023/04/05 06:13:25;;;;;;;9.00;4.85;;;8.30;61.90;;;;;;5058709;28;20028;-78
2023/04/05 06:15:50;;;;;;;7.80;4.90;;;8.40;62.30;;;;;;5059129;28;20456;-78
2023/04/05 06:18:16;;;;;;;9.00;4.70;;;8.30;62.00;;;;;;5075114;28;20043;-79
2023/04/05 06:20:43;;;;;;;8.40;5.35;;;8.10;62.60;;;;;;5075357;28;20028;-83
2023/04/05 06:23:12;;;;;;;9.35;4.65;;;8.00;63.00;;;;;;5058735;28;20047;-81
2023/04/05 06:25:39;;;;;;;8.75;5.00;;;7.90;63.40;;;;;;5093358;28;20024;-77
2023/04/05 06:28:06;;;;;;;9.27;5.22;;;8.00;64.10;;;;;;5074624;28;20039;-78
2023/04/05 06:30:32;;;;;;;7.22;4.80;;;8.10;63.80;;;;;;5074778;28;20128;-76
2023/04/05 06:32:59;;;;;;;6.75;4.28;;;8.10;64.30;;;;;;5074870;28;20051;-78
2023/04/05 06:35:25;;;;;;;6.97;4.35;;;8.30;64.20;;;;;;5093002;28;20060;-78
2023/04/05 06:37:51;;;;;;;7.13;4.22;;;8.50;65.00;;;;;;5092883;28;20036;-78
2023/04/05 06:40:18;;;;;;;8.40;4.40;;;8.70;64.90;;;;;;5092686;28;20052;-78
2023/04/05 06:42:43;;;;;;;11.40;5.40;;;8.90;64.60;;;;;;5093223;28;20134;-77
2023/04/05 06:45:10;;;;;;;9.25;4.93;;;9.00;62.70;;;;;;5058065;28;20508;-78
2023/04/05 06:47:37;;;;;;;6.93;4.55;;;8.90;62.50;;;;;;5093045;28;20467;-78
2023/04/05 06:50:05;;;;;;;9.43;5.80;;;9.00;62.50;;;;;;5092676;28;20020;-78
2023/04/05 06:52:32;;;;;;;9.70;4.15;;;8.90;61.60;;;;;;5092574;28;20047;-78
2023/04/05 06:54:58;;;;;;;6.75;4.32;;;8.90;62.10;;;;;;5093082;28;20038;-76
2023/04/05 06:57:23;;;;;;;7.80;4.50;;;8.90;62.80;;;;;;5074578;28;20127;-77
2023/04/05 06:59:51;;;;;;;7.50;4.45;;;9.10;63.00;;;;;;5074731;28;20028;-77
2023/04/05 07:02:17;;;;;;;10.07;5.72;;;9.20;62.80;;;;;;5092654;28;20067;-78
2023/04/05 07:04:43;;;;;;;7.78;5.25;;;9.30;62.10;;;;;;5095967;28;20059;-76
2023/04/05 07:07:09;;;;;;;10.40;5.53;;;9.20;61.50;;;;;;5077800;28;20441;-77
2023/04/05 07:09:35;;;;;;;10.25;5.38;;;9.10;61.40;;;;;;5096225;28;20041;-77
2023/04/05 07:12:03;;;;;;;10.13;5.00;;;9.00;61.40;;;;;;5096732;28;20054;-82
2023/04/05 07:14:30;;;;;;;6.93;5.05;;;8.90;61.50;;;;;;5078485;28;20440;-80
2023/04/05 07:16:56;;;;;;;9.20;5.30;;;8.80;62.40;;;;;;5078266;28;20074;-79
2023/04/05 07:19:21;;;;;;;12.55;5.35;;;8.90;62.40;;;;;;5096550;28;20463;-85
2023/04/05 07:21:48;;;;;;;9.43;4.82;;;8.90;62.40;;;;;;5096173;28;20377;-82
2023/04/05 07:24:14;;;;;;;9.68;4.95;;;8.90;62.10;;;;;;5078132;28;20028;-79
2023/04/05 07:26:40;;;;;;;6.55;4.68;;;9.10;62.50;;;;;;5077629;28;20024;-79
2023/04/05 07:29:07;;;;;;;8.63;4.75;;;9.10;61.20;;;;;;5095836;28;20043;-80
2023/04/05 07:31:33;;;;;;;8.23;4.97;;;9.20;61.60;;;;;;5077782;28;20028;-80
2023/04/05 07:34:00;;;;;;;8.43;5.18;;;9.40;61.50;;;;;;5095740;28;20036;-79
2023/04/05 07:36:27;;;;;;;7.28;4.57;;;9.40;60.60;;;;;;5095508;28;20036;-79
2023/04/05 07:38:56;;;;;;;8.35;4.82;;;9.40;60.70;;;;;;5095464;28;20036;-80
2023/04/05 07:41:23;;;;;;;8.38;5.07;;;9.50;60.30;;;;;;5061201;28;20074;-80
2023/04/05 07:43:49;;;;;;;7.05;4.22;;;9.60;59.70;;;;;;5095524;28;20050;-80
2023/04/05 07:46:15;;;;;;;7.00;4.50;;;9.50;59.80;;;;;;5060860;28;20028;-80
2023/04/05 07:48:40;;;;;;;7.95;4.50;;;9.50;59.80;;;;;;5077091;28;20585;-80
2023/04/05 07:51:08;;;;;;;8.10;4.28;;;9.50;60.10;;;;;;5095311;28;20032;-80
2023/04/05 07:53:35;;;;;;;9.23;4.63;;;9.60;59.00;;;;;;5077444;28;20395;-80
2023/04/05 07:56:05;;;;;;;10.27;4.63;;;9.80;59.40;;;;;;5077244;28;20180;-80
2023/04/05 07:58:32;;;;;;;7.50;4.88;;;10.10;58.90;;;;;;5095395;28;20036;-80
2023/04/05 08:01:01;;;;;;;8.35;4.82;;;10.30;57.80;;;;;;5076993;28;20365;-79
2023/04/05 08:03:28;;;;;;;7.50;4.60;;;10.30;57.90;;;;;;5094942;28;20051;-79
2023/04/05 08:05:54;;;;;;;10.73;4.22;;;10.30;58.20;;;;;;5076768;28;20353;-79
2023/04/05 08:08:20;;;;;;;8.63;4.18;;;10.40;58.50;;;;;;5076959;28;20050;-79
2023/04/05 08:10:46;;;;;;;7.72;4.55;;;10.40;57.40;;;;;;5077454;28;20032;-79
2023/04/05 08:13:11;;;;;;;8.68;4.68;;;10.30;56.90;;;;;;5059750;28;20032;-79
2023/04/05 08:15:37;;;;;;;11.73;4.70;;;10.20;57.50;;;;;;5076314;28;20036;-78
2023/04/05 08:18:03;;;;;;;11.75;4.65;;;10.30;57.60;;;;;;5094926;28;20046;-78
2023/04/05 08:20:28;;;;;;;8.45;4.38;;;10.30;57.60;;;;;;5076653;28;20375;-78
2023/04/05 08:22:54;;;;;;;8.30;4.35;;;10.40;56.80;;;;;;5076498;28;20133;-80
2023/04/05 08:25:20;;;;;;;7.88;3.97;;;10.40;56.50;;;;;;5095091;28;20032;-79
2023/04/05 08:27:46;;;;;;;7.40;4.53;;;10.40;58.00;;;;;;5060360;28;20130;-78
2023/04/05 08:30:12;;;;;;;8.68;4.15;;;10.60;57.90;;;;;;5094377;28;20100;-79
2023/04/05 08:32:37;;;;;;;7.57;4.55;;;10.80;57.60;;;;;;5076887;28;20029;-79
2023/04/05 08:35:03;;;;;;;7.78;4.07;;;11.10;57.40;;;;;;5076416;28;20035;-79
2023/04/05 08:37:33;;;;;;;6.22;3.65;;;11.20;57.00;;;;;;5076949;28;20036;-79
2023/04/05 08:39:59;;;;;;;9.38;4.45;;;11.30;56.50;;;;;;5076597;28;20079;-80
2023/04/05 08:42:32;;;;;;;8.10;3.70;;;11.30;55.70;;;;;;5060120;28;20032;-80
2023/04/05 08:45:01;;;;;;;6.40;3.97;;;11.20;55.80;;;;;;5076223;28;20035;-82
2023/04/05 08:47:27;;;;;;;8.10;3.97;;;11.30;55.70;;;;;;5076294;28;20062;-83
2023/04/05 08:49:53;;;;;;;7.80;4.40;;;11.60;55.30;;;;;;5094193;28;20028;-81
2023/04/05 08:52:18;;;;;;;6.78;4.07;;;11.60;55.50;;;;;;5075901;28;20492;-82
2023/04/05 08:54:44;;;;;;;6.78;3.50;;;11.60;55.50;;;;;;5076641;28;20480;-81
2023/04/05 08:57:10;;;;;;;6.95;3.70;;;11.80;54.90;;;;;;5093912;28;20025;-82
2023/04/05 08:59:38;;;;;;;6.63;3.97;;;12.00;53.30;;;;;;5093913;28;20464;-82
2023/04/05 09:02:13;;;;;;;6.35;3.63;;;12.10;52.10;;;;;;5075802;28;20059;-82
2023/04/05 09:04:43;;;;;;;8.50;3.58;;;12.30;53.00;;;;;;5076196;28;20547;-82
2023/04/05 09:07:12;;;;;;;6.68;3.88;;;12.50;52.80;;;;;;5093804;28;20020;-80
2023/04/05 09:09:40;;;;;;;7.00;3.30;;;12.70;51.10;;;;;;5076093;28;20020;-82
2023/04/05 09:12:07;;;;;;;7.57;3.85;;;12.80;50.80;;;;;;5075659;28;20032;-82
2023/04/05 09:14:37;;;;;;;6.65;3.70;;;13.00;51.60;;;;;;5093888;28;20023;-82
2023/04/05 09:17:04;;;;;;;6.13;3.70;;;13.10;51.20;;;;;;5076182;28;20143;-82
2023/04/05 09:19:30;;;;;;;6.78;3.90;;;13.20;51.40;;;;;;5093804;28;20024;-82
2023/04/05 09:22:03;;;;;;;5.40;3.45;;;13.20;50.60;;;;;;5075810;28;20081;-78
2023/04/05 09:24:30;;;;;;;7.82;3.50;;;13.30;50.10;;;;;;5075572;28;20046;-82
2023/04/05 09:27:12;;;;;;;8.15;3.58;;;13.30;49.00;;;;;;5093230;28;20115;-82
2023/04/05 09:29:44;;;;;;;5.97;3.47;;;13.50;50.10;;;;;;5075714;28;20352;-82
2023/04/05 09:32:11;;;;;;;9.07;3.50;;;13.70;51.40;;;;;;5093339;28;20028;-81
2023/04/05 09:34:38;;;;;;;6.25;3.28;;;13.80;50.20;;;;;;5075776;28;20060;-82
2023/04/05 09:37:18;;;;;;;6.57;3.50;;;13.80;49.00;;;;;;5075538;28;20085;-82
2023/04/05 09:39:45;;;;;;;6.53;3.70;;;14.00;48.50;;;;;;5075408;28;20051;-82
2023/04/05 09:42:16;;;;;;;6.45;3.80;;;13.70;48.40;;;;;;5075912;28;20055;-82
2023/04/05 09:45:04;;;;;;;6.82;3.72;;;13.70;49.20;;;;;;5093434;28;20098;-82
2023/04/05 09:47:33;;;;;;;6.93;3.60;;;13.90;48.70;;;;;;5093477;28;20024;-82
2023/04/05 09:50:15;;;;;;;7.30;3.50;;;14.00;48.90;;;;;;5075974;28;20107;-82
2023/04/05 09:52:41;;;;;;;5.10;3.28;;;14.10;48.40;;;;;;5075879;28;20024;-78
2023/04/05 09:55:08;;;;;;;4.70;3.13;;;14.20;48.10;;;;;;5093586;28;20028;-83
2023/04/05 09:57:36;;;;;;;6.13;3.30;;;14.40;47.70;;;;;;5075489;28;20444;-82
2023/04/05 10:00:04;;;;;;;8.88;3.65;;;14.50;47.50;;;;;;5093389;28;20158;-78
2023/04/05 10:02:38;;;;;;;6.53;3.25;;;14.60;46.80;;;;;;5093327;28;20085;-78
2023/04/05 10:05:12;;;;;;;7.30;2.92;;;14.60;46.60;;;;;;5093467;28;20028;-78
2023/04/05 10:07:38;;;;;;;4.18;2.90;;;14.70;46.10;;;;;;5093697;28;20028;-79
2023/04/05 10:10:04;;;;;;;5.70;3.22;;;14.80;46.10;;;;;;5093260;28;20024;-77
2023/04/05 10:12:31;;;;;;;6.00;2.92;;;15.00;45.80;;;;;;5092894;28;20085;-78
2023/04/05 10:14:58;;;;;;;5.28;3.42;;;15.00;44.90;;;;;;5093332;28;20471;-77
2023/04/05 10:17:30;;;;;;;5.78;3.15;;;15.00;44.00;;;;;;5093240;28;20036;-76
2023/04/05 10:20:21;;;;;;;8.73;3.50;;;15.00;44.70;;;;;;5074575;28;20024;-78
2023/04/05 10:23:08;;;;;;;6.05;3.58;;;15.20;44.90;;;;;;5092913;28;20029;-75
2023/04/05 10:25:36;;;;;;;5.50;3.65;;;15.20;45.10;;;;;;5093350;28;20385;-80
2023/04/05 10:28:13;;;;;;;5.40;3.25;;;15.20;44.70;;;;;;5074812;28;20024;-79
2023/04/05 10:30:46;;;;;;;5.30;3.75;;;15.40;45.20;;;;;;5075188;28;20028;-81
2023/04/05 10:33:18;;;;;;;;;;;15.30;45.10;;;;;;5093284;28;20170;-79
2023/04/05 10:36:01;;;;;;;5.78;3.38;;;15.50;45.00;;;;;;5093432;28;19911;-77
2023/04/05 10:38:28;;;;;;;4.75;2.58;;;15.50;44.20;;;;;;5078009;28;20039;-78
2023/04/05 10:41:01;;;;;;;4.43;3.30;;;15.40;44.80;;;;;;5096736;28;20139;-75
2023/04/05 10:43:30;;;;;;;4.80;3.10;;;15.40;43.60;;;;;;5096758;28;20031;-78
2023/04/05 10:45:58;;;;;;;4.75;3.20;;;15.30;42.80;;;;;;5096607;28;20149;-78
2023/04/05 10:48:39;;;;;;;5.32;3.25;;;15.30;44.00;;;;;;5096923;28;20032;-78
2023/04/05 10:51:06;;;;;;;8.98;3.10;;;15.20;44.20;;;;;;5096970;28;20028;-78
2023/04/05 10:53:33;;;;;;;4.43;2.88;;;14.80;45.20;;;;;;5078314;28;20123;-78
2023/04/05 10:56:01;;;;;;;9.00;3.58;;;14.70;44.60;;;;;;5096140;28;20032;-78
2023/04/05 10:58:28;;;;;;;4.25;2.58;;;14.90;45.20;;;;;;5078112;28;20063;-78
2023/04/05 11:00:54;;;;;;;7.18;3.28;;;15.20;44.60;;;;;;5078004;28;20114;-80
2023/04/05 11:03:48;;;;;;;5.70;3.30;;;15.50;44.50;;;;;;5096110;28;20020;-79
2023/04/05 11:06:22;;;;;;;;;;;15.90;44.50;;;;;;5096612;28;20126;-78
2023/04/05 11:08:54;;;;;;;6.88;2.90;;;15.90;42.80;;;;;;5096147;28;19904;-78
2023/04/05 11:11:21;;;;;;;4.95;2.28;;;16.00;44.40;;;;;;5096668;28;20049;-77
2023/04/05 11:13:52;;;;;;;5.63;2.85;;;16.30;47.50;;;;;;5096339;28;20028;-75
2023/04/05 11:16:18;;;;;;;4.35;2.50;;;16.50;46.60;;;;;;5096024;28;20020;-75
2023/04/05 11:18:46;;;;;;;4.53;2.40;;;16.60;45.90;;;;;;5096289;28;20032;-77
2023/04/05 11:21:23;;;;;;;5.30;2.17;;;16.90;45.50;;;;;;5096074;28;20032;-77
2023/04/05 11:24:08;;;;;;;6.38;2.40;;;17.00;45.60;;;;;;5078851;28;20028;-76
2023/04/05 11:26:39;;;;;;;4.28;2.10;;;17.30;45.60;;;;;;5096422;28;20069;-77
2023/04/05 11:29:10;;;;;;;6.60;2.80;;;17.50;45.20;;;;;;5078825;28;20043;-78
2023/04/05 11:31:35;;;;;;;4.10;1.77;;;17.60;43.40;;;;;;5078191;28;20138;-77
2023/04/05 11:34:11;;;;;;;4.53;2.90;;;17.70;44.10;;;;;;5077936;28;20473;-77
2023/04/05 11:36:43;;;;;;;3.08;2.00;;;17.90;43.60;;;;;;5096349;28;20032;-77
2023/04/05 11:39:17;;;;;;;5.60;2.10;;;17.90;42.60;;;;;;5077245;28;20028;-77
2023/04/05 11:41:45;;;;;;;4.60;2.00;;;18.00;42.80;;;;;;5096153;28;20052;-76
2023/04/05 11:44:17;;;;;;;5.40;3.25;;;18.10;43.10;;;;;;5095675;28;20085;-78
2023/04/05 11:46:45;;;;;;;5.00;2.00;;;18.00;41.60;;;;;;5095893;28;20034;-77
2023/04/05 11:49:12;;;;;;;4.63;2.45;;;17.70;43.10;;;;;;5095051;28;20044;-75
2023/04/05 11:51:43;;;;;;;6.32;2.50;;;17.80;43.50;;;;;;5077970;28;20520;-77
2023/04/05 11:54:09;;;;;;;2.95;1.73;;;17.90;43.20;;;;;;5077945;28;20032;-76
2023/04/05 11:56:35;;;;;;;3.75;1.77;;;18.00;43.10;;;;;;5095456;28;20031;-76
2023/04/05 11:59:00;;;;;;;3.60;2.10;;;18.20;43.30;;;;;;5077375;28;20036;-76
2023/04/05 12:01:26;;;;;;;3.50;2.25;;;18.30;42.20;;;;;;5077769;28;20028;-76
2023/04/05 12:03:56;;;;;;;6.13;3.20;;;18.40;42.60;;;;;;5077182;28;20491;-75
2023/04/05 12:06:23;;;;;;;5.32;2.50;;;18.50;42.40;;;;;;5077112;28;20028;-76
2023/04/05 12:08:49;;;;;;;4.40;2.15;;;18.50;42.60;;;;;;5076956;28;20028;-77
2023/04/05 12:11:22;;;;;;;5.25;2.45;;;18.50;42.70;;;;;;5077191;28;20569;-78
2023/04/05 12:13:47;;;;;;;3.85;2.35;;;18.50;42.40;;;;;;5077353;28;20031;-76
2023/04/05 12:16:13;;;;;;;3.13;2.13;;;18.50;42.00;;;;;;5094683;28;20040;-77
2023/04/05 12:18:39;;;;;;;3.72;1.83;;;18.60;41.90;;;;;;5094703;28;20040;-77
2023/04/05 12:21:10;;;;;;;3.88;2.70;;;18.70;42.00;;;;;;5076790;28;20047;-75
2023/04/05 12:23:36;;;;;;;5.90;3.30;;;18.90;41.90;;;;;;5094753;28;20028;-78
2023/04/05 12:26:03;;;;;;;10.38;3.83;;;18.90;41.00;;;;;;5076353;28;20042;-76
2023/04/05 12:28:57;;;;;;;17.77;4.65;;;18.80;41.80;;;;;;5076699;28;20054;-77
2023/04/05 12:31:43;;;;;;;13.57;4.32;;;18.90;41.70;;;;;;5094777;28;20059;-78
2023/04/05 12:34:10;;;;;;;11.00;3.78;;;19.00;41.20;;;;;;5094390;28;20035;-78
2023/04/05 12:36:37;;;;;;;8.82;3.83;;;18.80;40.70;;;;;;5076561;28;20032;-78
2023/04/05 12:39:07;;;;;;;9.50;3.75;;;18.90;41.40;;;;;;5059528;28;20040;-78
2023/04/05 12:41:33;;;;;;;14.30;3.83;;;18.80;40.60;;;;;;5093924;28;20071;-77
2023/04/05 12:44:04;;;;;;;11.43;3.97;;;18.70;41.60;;;;;;5076208;28;20070;-77
2023/04/05 12:46:46;;;;;;;5.60;3.15;;;18.80;41.00;;;;;;5076896;28;20024;-76
2023/04/05 12:49:13;;;;;;;7.35;3.30;;;18.90;40.40;;;;;;5094166;28;20472;-77
2023/04/05 12:51:46;;;;;;;9.52;3.33;;;18.90;40.50;;;;;;5094068;28;20028;-77
2023/04/05 12:54:21;;;;;;;9.40;3.35;;;19.00;40.60;;;;;;5094137;28;20051;-77
2023/04/05 12:56:53;;;;;;;6.40;2.92;;;19.00;40.50;;;;;;5093856;28;20468;-76